sensor_id;sensor_type;location;lat;lon;timestamp;temperature;humidity
16287;DHT22;8251;53.568;10.018;2024-01-06T00:02:11;3.40;92.70
16287;DHT22;8251;53.568;10.018;2024-01-06T00:04:37;3.50;92.60
16287;DHT22;8251;53.568;10.018;2024-01-06T00:07:04;3.40;92.70
16287;DHT22;8251;53.568;10.018;2024-01-06T00:09:36;3.50;92.70
16287;DHT22;8251;53.568;10.018;2024-01-06T00:12:03;3.50;92.70
16287;DHT22;8251;53.568;10.018;2024-01-06T00:14:30;3.50;92.60
16287;DHT22;8251;53.568;10.018;2024-01-06T00:16:57;3.40;92.70
16287;DHT22;8251;53.568;10.018;2024-01-06T00:19:26;3.50;92.70
16287;DHT22;8251;53.568;10.018;2024-01-06T00:21:53;3.40;92.60
16287;DHT22;8251;53.568;10.018;2024-01-06T00:24:20;3.40;92.70
16287;DHT22;8251;53.568;10.018;2024-01-06T00:26:47;3.40;92.70
16287;DHT22;8251;53.568;10.018;2024-01-06T00:29:13;3.40;92.70
16287;DHT22;8251;53.568;10.018;2024-01-06T00:31:44;3.50;92.80
16287;DHT22;8251;53.568;10.018;2024-01-06T00:34:11;3.50;92.90
16287;DHT22;8251;53.568;10.018;2024-01-06T00:36:39;3.50;92.90
16287;DHT22;8251;53.568;10.018;2024-01-06T00:39:08;3.50;92.90
16287;DHT22;8251;53.568;10.018;2024-01-06T00:41:35;3.50;92.90
16287;DHT22;8251;53.568;10.018;2024-01-06T00:44:02;3.50;92.90
16287;DHT22;8251;53.568;10.018;2024-01-06T00:46:29;3.50;92.90
16287;DHT22;8251;53.568;10.018;2024-01-06T00:48:56;3.50;92.80
16287;DHT22;8251;53.568;10.018;2024-01-06T00:51:23;3.50;92.80
16287;DHT22;8251;53.568;10.018;2024-01-06T00:53:51;3.50;93.00
16287;DHT22;8251;53.568;10.018;2024-01-06T00:56:20;3.40;92.90
16287;DHT22;8251;53.568;10.018;2024-01-06T00:58:47;3.50;92.90
16287;DHT22;8251;53.568;10.018;2024-01-06T01:01:15;3.50;92.90
16287;DHT22;8251;53.568;10.018;2024-01-06T01:03:42;3.50;92.90
16287;DHT22;8251;53.568;10.018;2024-01-06T01:06:09;3.50;92.80
16287;DHT22;8251;53.568;10.018;2024-01-06T01:08:36;3.50;92.80
16287;DHT22;8251;53.568;10.018;2024-01-06T01:11:05;3.50;92.80
16287;DHT22;8251;53.568;10.018;2024-01-06T01:13:32;3.50;92.90
16287;DHT22;8251;53.568;10.018;2024-01-06T01:15:59;3.60;92.90
16287;DHT22;8251;53.568;10.018;2024-01-06T01:18:26;3.50;92.80
16287;DHT22;8251;53.568;10.018;2024-01-06T01:20:53;3.50;92.80
16287;DHT22;8251;53.568;10.018;2024-01-06T01:23:20;3.50;92.80
16287;DHT22;8251;53.568;10.018;2024-01-06T01:25:47;3.50;92.80
16287;DHT22;8251;53.568;10.018;2024-01-06T01:28:17;3.50;92.80
16287;DHT22;8251;53.568;10.018;2024-01-06T01:30:45;3.50;92.90
16287;DHT22;8251;53.568;10.018;2024-01-06T01:33:12;3.50;92.90
16287;DHT22;8251;53.568;10.018;2024-01-06T01:35:40;3.50;92.90
16287;DHT22;8251;53.568;10.018;2024-01-06T01:38:08;3.50;92.90
16287;DHT22;8251;53.568;10.018;2024-01-06T01:40:35;3.50;93.00
16287;DHT22;8251;53.568;10.018;2024-01-06T01:43:03;3.50;93.00
16287;DHT22;8251;53.568;10.018;2024-01-06T01:45:32;3.50;93.00
16287;DHT22;8251;53.568;10.018;2024-01-06T01:48:00;3.50;93.00
16287;DHT22;8251;53.568;10.018;2024-01-06T01:50:27;3.50;93.00
16287;DHT22;8251;53.568;10.018;2024-01-06T01:52:56;3.50;92.90
16287;DHT22;8251;53.568;10.018;2024-01-06T01:55:25;3.50;92.90
16287;DHT22;8251;53.568;10.018;2024-01-06T01:57:53;3.50;93.00
16287;DHT22;8251;53.568;10.018;2024-01-06T02:00:20;3.50;92.90
16287;DHT22;8251;53.568;10.018;2024-01-06T02:02:48;3.50;92.90
16287;DHT22;8251;53.568;10.018;2024-01-06T02:05:16;3.60;92.90
16287;DHT22;8251;53.568;10.018;2024-01-06T02:07:43;3.50;92.90
16287;DHT22;8251;53.568;10.018;2024-01-06T02:10:11;3.60;92.90
16287;DHT22;8251;53.568;10.018;2024-01-06T02:12:38;3.50;92.90
16287;DHT22;8251;53.568;10.018;2024-01-06T02:15:06;3.50;92.90
16287;DHT22;8251;53.568;10.018;2024-01-06T02:17:33;3.50;93.00
16287;DHT22;8251;53.568;10.018;2024-01-06T02:20:03;3.50;93.00
16287;DHT22;8251;53.568;10.018;2024-01-06T02:22:32;3.50;92.70
16287;DHT22;8251;53.568;10.018;2024-01-06T02:24:59;3.50;93.00
16287;DHT22;8251;53.568;10.018;2024-01-06T02:27:26;3.50;93.00
16287;DHT22;8251;53.568;10.018;2024-01-06T02:29:52;3.50;93.00
16287;DHT22;8251;53.568;10.018;2024-01-06T02:32:23;3.50;93.10
16287;DHT22;8251;53.568;10.018;2024-01-06T02:34:50;3.60;93.10
16287;DHT22;8251;53.568;10.018;2024-01-06T02:37:18;3.60;93.10
16287;DHT22;8251;53.568;10.018;2024-01-06T02:39:47;3.50;93.00
16287;DHT22;8251;53.568;10.018;2024-01-06T02:42:14;3.60;93.00
16287;DHT22;8251;53.568;10.018;2024-01-06T02:44:41;3.60;92.80
16287;DHT22;8251;53.568;10.018;2024-01-06T02:47:08;3.60;92.80
16287;DHT22;8251;53.568;10.018;2024-01-06T02:49:35;3.50;92.90
16287;DHT22;8251;53.568;10.018;2024-01-06T02:52:02;3.50;93.00
16287;DHT22;8251;53.568;10.018;2024-01-06T02:54:28;3.50;93.10
16287;DHT22;8251;53.568;10.018;2024-01-06T02:56:57;3.50;93.00
16287;DHT22;8251;53.568;10.018;2024-01-06T02:59:26;3.60;93.00
16287;DHT22;8251;53.568;10.018;2024-01-06T03:01:53;3.40;93.00
16287;DHT22;8251;53.568;10.018;2024-01-06T03:04:20;3.40;93.00
16287;DHT22;8251;53.568;10.018;2024-01-06T03:06:50;4.00;93.20
16287;DHT22;8251;53.568;10.018;2024-01-06T03:09:22;3.50;93.00
16287;DHT22;8251;53.568;10.018;2024-01-06T03:11:48;3.50;93.00
16287;DHT22;8251;53.568;10.018;2024-01-06T03:14:16;3.50;92.70
16287;DHT22;8251;53.568;10.018;2024-01-06T03:16:45;3.50;93.10
16287;DHT22;8251;53.568;10.018;2024-01-06T03:19:12;3.50;93.10
16287;DHT22;8251;53.568;10.018;2024-01-06T03:21:39;3.50;93.10
16287;DHT22;8251;53.568;10.018;2024-01-06T03:24:07;3.50;93.00
16287;DHT22;8251;53.568;10.018;2024-01-06T03:26:34;3.50;93.00
16287;DHT22;8251;53.568;10.018;2024-01-06T03:29:00;3.50;93.00
16287;DHT22;8251;53.568;10.018;2024-01-06T03:31:29;3.60;93.00
16287;DHT22;8251;53.568;10.018;2024-01-06T03:33:56;3.50;93.30
16287;DHT22;8251;53.568;10.018;2024-01-06T03:36:23;3.50;93.00
16287;DHT22;8251;53.568;10.018;2024-01-06T03:38:50;3.50;93.00
16287;DHT22;8251;53.568;10.018;2024-01-06T03:41:18;3.50;93.00
16287;DHT22;8251;53.568;10.018;2024-01-06T03:43:45;3.50;93.10
16287;DHT22;8251;53.568;10.018;2024-01-06T03:46:14;3.50;93.00
16287;DHT22;8251;53.568;10.018;2024-01-06T03:48:42;3.60;93.00
16287;DHT22;8251;53.568;10.018;2024-01-06T03:51:10;3.60;93.00
16287;DHT22;8251;53.568;10.018;2024-01-06T03:53:39;3.50;92.90
16287;DHT22;8251;53.568;10.018;2024-01-06T03:56:06;3.50;92.90
16287;DHT22;8251;53.568;10.018;2024-01-06T03:58:34;3.50;93.00
16287;DHT22;8251;53.568;10.018;2024-01-06T04:01:01;3.50;92.90
16287;DHT22;8251;53.568;10.018;2024-01-06T04:03:28;3.50;92.90
16287;DHT22;8251;53.568;10.018;2024-01-06T04:05:56;3.50;92.90
16287;DHT22;8251;53.568;10.018;2024-01-06T04:08:23;3.20;92.80
16287;DHT22;8251;53.568;10.018;2024-01-06T04:10:51;3.40;92.80
16287;DHT22;8251;53.568;10.018;2024-01-06T04:13:18;3.40;92.80
16287;DHT22;8251;53.568;10.018;2024-01-06T04:15:44;3.30;92.90
16287;DHT22;8251;53.568;10.018;2024-01-06T04:18:11;3.40;92.90
16287;DHT22;8251;53.568;10.018;2024-01-06T04:20:39;3.40;92.90
16287;DHT22;8251;53.568;10.018;2024-01-06T04:23:07;3.30;92.90
16287;DHT22;8251;53.568;10.018;2024-01-06T04:25:34;3.40;92.90
16287;DHT22;8251;53.568;10.018;2024-01-06T04:28:01;3.30;92.70
16287;DHT22;8251;53.568;10.018;2024-01-06T04:30:28;3.40;92.80
16287;DHT22;8251;53.568;10.018;2024-01-06T04:32:55;3.40;92.70
16287;DHT22;8251;53.568;10.018;2024-01-06T04:35:24;3.30;92.70
16287;DHT22;8251;53.568;10.018;2024-01-06T04:37:52;3.30;92.70
16287;DHT22;8251;53.568;10.018;2024-01-06T04:40:21;3.30;92.70
16287;DHT22;8251;53.568;10.018;2024-01-06T04:42:47;3.30;92.70
16287;DHT22;8251;53.568;10.018;2024-01-06T04:45:15;3.30;92.80
16287;DHT22;8251;53.568;10.018;2024-01-06T04:47:44;3.30;92.90
16287;DHT22;8251;53.568;10.018;2024-01-06T04:50:11;3.40;92.90
16287;DHT22;8251;53.568;10.018;2024-01-06T04:52:39;3.50;92.90
16287;DHT22;8251;53.568;10.018;2024-01-06T04:55:09;3.40;92.80
16287;DHT22;8251;53.568;10.018;2024-01-06T04:57:37;3.40;92.70
16287;DHT22;8251;53.568;10.018;2024-01-06T05:00:07;3.40;92.70
16287;DHT22;8251;53.568;10.018;2024-01-06T05:02:35;3.40;92.70
16287;DHT22;8251;53.568;10.018;2024-01-06T05:05:02;3.30;92.60
16287;DHT22;8251;53.568;10.018;2024-01-06T05:07:29;3.30;92.70
16287;DHT22;8251;53.568;10.018;2024-01-06T05:09:59;3.30;92.70
16287;DHT22;8251;53.568;10.018;2024-01-06T05:12:34;3.30;92.70
16287;DHT22;8251;53.568;10.018;2024-01-06T05:15:04;3.20;92.80
16287;DHT22;8251;53.568;10.018;2024-01-06T05:17:32;3.30;92.80
16287;DHT22;8251;53.568;10.018;2024-01-06T05:20:00;3.30;92.90
16287;DHT22;8251;53.568;10.018;2024-01-06T05:22:27;3.20;92.90
16287;DHT22;8251;53.568;10.018;2024-01-06T05:24:54;3.20;93.00
16287;DHT22;8251;53.568;10.018;2024-01-06T05:27:22;3.20;93.00
16287;DHT22;8251;53.568;10.018;2024-01-06T05:29:49;3.20;93.10
16287;DHT22;8251;53.568;10.018;2024-01-06T05:32:18;3.20;93.10
16287;DHT22;8251;53.568;10.018;2024-01-06T05:34:45;3.20;93.10
16287;DHT22;8251;53.568;10.018;2024-01-06T05:37:13;3.20;93.10
16287;DHT22;8251;53.568;10.018;2024-01-06T05:39:40;3.20;93.00
16287;DHT22;8251;53.568;10.018;2024-01-06T05:42:10;3.20;93.10
16287;DHT22;8251;53.568;10.018;2024-01-06T05:44:38;3.20;93.00
16287;DHT22;8251;53.568;10.018;2024-01-06T05:47:05;3.20;93.10
16287;DHT22;8251;53.568;10.018;2024-01-06T05:49:33;3.30;93.10
16287;DHT22;8251;53.568;10.018;2024-01-06T05:52:01;3.30;93.10
16287;DHT22;8251;53.568;10.018;2024-01-06T05:54:28;3.30;92.90
16287;DHT22;8251;53.568;10.018;2024-01-06T05:56:56;3.30;93.00
16287;DHT22;8251;53.568;10.018;2024-01-06T05:59:23;3.30;93.00
16287;DHT22;8251;53.568;10.018;2024-01-06T06:01:49;3.30;93.00
16287;DHT22;8251;53.568;10.018;2024-01-06T06:04:17;3.40;93.00
16287;DHT22;8251;53.568;10.018;2024-01-06T06:06:45;3.40;93.00
16287;DHT22;8251;53.568;10.018;2024-01-06T06:09:14;3.40;92.90
16287;DHT22;8251;53.568;10.018;2024-01-06T06:11:41;3.40;92.90
16287;DHT22;8251;53.568;10.018;2024-01-06T06:14:10;3.40;92.90
16287;DHT22;8251;53.568;10.018;2024-01-06T06:16:39;3.40;92.80
16287;DHT22;8251;53.568;10.018;2024-01-06T06:19:05;3.40;92.80
16287;DHT22;8251;53.568;10.018;2024-01-06T06:21:33;3.40;92.90
16287;DHT22;8251;53.568;10.018;2024-01-06T06:24:02;3.40;92.90
16287;DHT22;8251;53.568;10.018;2024-01-06T06:26:30;3.50;92.80
16287;DHT22;8251;53.568;10.018;2024-01-06T06:28:59;3.50;92.80
16287;DHT22;8251;53.568;10.018;2024-01-06T06:31:26;3.50;92.60
16287;DHT22;8251;53.568;10.018;2024-01-06T06:33:53;3.40;92.60
16287;DHT22;8251;53.568;10.018;2024-01-06T06:36:21;3.40;92.60
16287;DHT22;8251;53.568;10.018;2024-01-06T06:38:48;3.40;92.60
16287;DHT22;8251;53.568;10.018;2024-01-06T06:41:16;3.40;92.50
16287;DHT22;8251;53.568;10.018;2024-01-06T06:43:45;3.40;92.60
16287;DHT22;8251;53.568;10.018;2024-01-06T06:46:12;3.30;92.60
16287;DHT22;8251;53.568;10.018;2024-01-06T06:48:39;3.30;92.80
16287;DHT22;8251;53.568;10.018;2024-01-06T06:51:07;3.20;92.70
16287;DHT22;8251;53.568;10.018;2024-01-06T06:53:35;3.20;92.70
16287;DHT22;8251;53.568;10.018;2024-01-06T06:56:02;3.20;92.80
16287;DHT22;8251;53.568;10.018;2024-01-06T06:58:31;3.20;93.00
16287;DHT22;8251;53.568;10.018;2024-01-06T07:01:00;3.20;93.00
16287;DHT22;8251;53.568;10.018;2024-01-06T07:03:30;3.20;93.10
16287;DHT22;8251;53.568;10.018;2024-01-06T07:05:58;3.30;93.10
16287;DHT22;8251;53.568;10.018;2024-01-06T07:08:28;3.30;93.10
16287;DHT22;8251;53.568;10.018;2024-01-06T07:10:55;3.30;93.00
16287;DHT22;8251;53.568;10.018;2024-01-06T07:13:22;3.30;93.20
16287;DHT22;8251;53.568;10.018;2024-01-06T07:15:54;3.40;93.20
16287;DHT22;8251;53.568;10.018;2024-01-06T07:18:22;3.40;93.00
16287;DHT22;8251;53.568;10.018;2024-01-06T07:20:50;3.50;93.00
16287;DHT22;8251;53.568;10.018;2024-01-06T07:23:18;3.40;92.70
16287;DHT22;8251;53.568;10.018;2024-01-06T07:25:46;3.50;92.70
16287;DHT22;8251;53.568;10.018;2024-01-06T07:28:17;3.50;92.60
16287;DHT22;8251;53.568;10.018;2024-01-06T07:30:46;3.50;92.40
16287;DHT22;8251;53.568;10.018;2024-01-06T07:33:21;3.50;92.50
16287;DHT22;8251;53.568;10.018;2024-01-06T07:35:50;3.40;92.40
16287;DHT22;8251;53.568;10.018;2024-01-06T07:38:20;3.40;92.30
16287;DHT22;8251;53.568;10.018;2024-01-06T07:40:52;3.30;92.40
16287;DHT22;8251;53.568;10.018;2024-01-06T07:43:42;3.40;92.40
16287;DHT22;8251;53.568;10.018;2024-01-06T07:46:10;3.30;92.20
16287;DHT22;8251;53.568;10.018;2024-01-06T07:48:40;3.30;92.30
16287;DHT22;8251;53.568;10.018;2024-01-06T07:51:11;3.40;92.40
16287;DHT22;8251;53.568;10.018;2024-01-06T07:53:38;3.20;92.30
16287;DHT22;8251;53.568;10.018;2024-01-06T07:56:07;3.20;92.40
16287;DHT22;8251;53.568;10.018;2024-01-06T07:58:37;3.20;92.50
16287;DHT22;8251;53.568;10.018;2024-01-06T08:01:06;3.30;92.30
16287;DHT22;8251;53.568;10.018;2024-01-06T08:03:37;3.30;92.40
16287;DHT22;8251;53.568;10.018;2024-01-06T08:06:09;3.30;92.40
16287;DHT22;8251;53.568;10.018;2024-01-06T08:08:42;3.40;92.40
16287;DHT22;8251;53.568;10.018;2024-01-06T08:11:11;3.30;92.20
16287;DHT22;8251;53.568;10.018;2024-01-06T08:13:39;3.30;92.20
16287;DHT22;8251;53.568;10.018;2024-01-06T08:16:08;3.30;92.10
16287;DHT22;8251;53.568;10.018;2024-01-06T08:18:35;3.30;92.10
16287;DHT22;8251;53.568;10.018;2024-01-06T08:21:02;3.20;92.00
16287;DHT22;8251;53.568;10.018;2024-01-06T08:23:32;3.20;92.10
16287;DHT22;8251;53.568;10.018;2024-01-06T08:25:59;3.30;92.20
16287;DHT22;8251;53.568;10.018;2024-01-06T08:28:27;3.30;92.10
16287;DHT22;8251;53.568;10.018;2024-01-06T08:30:54;3.30;92.30
16287;DHT22;8251;53.568;10.018;2024-01-06T08:33:21;3.30;92.20
16287;DHT22;8251;53.568;10.018;2024-01-06T08:35:48;3.30;92.10
16287;DHT22;8251;53.568;10.018;2024-01-06T08:38:16;3.40;92.00
16287;DHT22;8251;53.568;10.018;2024-01-06T08:40:51;3.30;91.90
16287;DHT22;8251;53.568;10.018;2024-01-06T08:43:20;3.30;91.90
16287;DHT22;8251;53.568;10.018;2024-01-06T08:45:51;3.30;92.00
16287;DHT22;8251;53.568;10.018;2024-01-06T08:48:18;3.30;92.00
16287;DHT22;8251;53.568;10.018;2024-01-06T08:50:45;3.30;91.90
16287;DHT22;8251;53.568;10.018;2024-01-06T08:53:13;3.30;91.90
16287;DHT22;8251;53.568;10.018;2024-01-06T08:55:41;3.30;91.90
16287;DHT22;8251;53.568;10.018;2024-01-06T08:58:14;3.30;91.60
16287;DHT22;8251;53.568;10.018;2024-01-06T09:00:42;3.30;91.80
16287;DHT22;8251;53.568;10.018;2024-01-06T09:03:08;3.30;91.70
16287;DHT22;8251;53.568;10.018;2024-01-06T09:05:39;3.40;91.80
16287;DHT22;8251;53.568;10.018;2024-01-06T09:08:06;3.30;91.70
16287;DHT22;8251;53.568;10.018;2024-01-06T09:10:34;3.30;91.50
16287;DHT22;8251;53.568;10.018;2024-01-06T09:13:01;3.30;91.50
16287;DHT22;8251;53.568;10.018;2024-01-06T09:15:29;3.30;91.60
16287;DHT22;8251;53.568;10.018;2024-01-06T09:17:57;3.30;91.70
16287;DHT22;8251;53.568;10.018;2024-01-06T09:20:25;3.30;91.70
16287;DHT22;8251;53.568;10.018;2024-01-06T09:22:53;3.30;91.50
16287;DHT22;8251;53.568;10.018;2024-01-06T09:25:19;3.30;91.20
16287;DHT22;8251;53.568;10.018;2024-01-06T09:27:48;3.30;91.30
16287;DHT22;8251;53.568;10.018;2024-01-06T09:30:18;3.20;91.60
16287;DHT22;8251;53.568;10.018;2024-01-06T09:32:47;3.30;91.70
16287;DHT22;8251;53.568;10.018;2024-01-06T09:35:16;3.30;91.90
16287;DHT22;8251;53.568;10.018;2024-01-06T09:37:44;3.40;92.10
16287;DHT22;8251;53.568;10.018;2024-01-06T09:40:12;3.40;91.80
16287;DHT22;8251;53.568;10.018;2024-01-06T09:42:40;3.40;92.10
16287;DHT22;8251;53.568;10.018;2024-01-06T09:45:07;3.40;91.90
16287;DHT22;8251;53.568;10.018;2024-01-06T09:47:35;3.40;91.80
16287;DHT22;8251;53.568;10.018;2024-01-06T09:50:09;3.50;92.10
16287;DHT22;8251;53.568;10.018;2024-01-06T09:52:41;3.50;92.10
16287;DHT22;8251;53.568;10.018;2024-01-06T09:55:11;3.50;92.20
16287;DHT22;8251;53.568;10.018;2024-01-06T09:57:38;3.50;91.80
16287;DHT22;8251;53.568;10.018;2024-01-06T10:00:06;3.50;91.70
16287;DHT22;8251;53.568;10.018;2024-01-06T10:02:33;3.50;91.80
16287;DHT22;8251;53.568;10.018;2024-01-06T10:05:02;3.50;91.80
16287;DHT22;8251;53.568;10.018;2024-01-06T10:07:31;3.50;91.80
16287;DHT22;8251;53.568;10.018;2024-01-06T10:10:00;3.50;91.80
16287;DHT22;8251;53.568;10.018;2024-01-06T10:12:27;3.50;91.80
16287;DHT22;8251;53.568;10.018;2024-01-06T10:14:54;3.60;91.80
16287;DHT22;8251;53.568;10.018;2024-01-06T10:17:22;3.60;91.70
16287;DHT22;8251;53.568;10.018;2024-01-06T10:19:49;3.50;91.50
16287;DHT22;8251;53.568;10.018;2024-01-06T10:22:18;3.50;91.50
16287;DHT22;8251;53.568;10.018;2024-01-06T10:24:50;3.40;91.60
16287;DHT22;8251;53.568;10.018;2024-01-06T10:27:17;3.40;91.60
16287;DHT22;8251;53.568;10.018;2024-01-06T10:29:44;3.40;91.60
16287;DHT22;8251;53.568;10.018;2024-01-06T10:32:11;3.40;91.60
16287;DHT22;8251;53.568;10.018;2024-01-06T10:34:42;3.40;91.60
16287;DHT22;8251;53.568;10.018;2024-01-06T10:37:11;3.40;91.80
16287;DHT22;8251;53.568;10.018;2024-01-06T10:39:38;3.40;91.90
16287;DHT22;8251;53.568;10.018;2024-01-06T10:42:07;3.30;91.90
16287;DHT22;8251;53.568;10.018;2024-01-06T10:44:35;3.40;92.10
16287;DHT22;8251;53.568;10.018;2024-01-06T10:47:03;3.40;92.10
16287;DHT22;8251;53.568;10.018;2024-01-06T10:49:31;3.40;92.00
16287;DHT22;8251;53.568;10.018;2024-01-06T10:51:59;3.40;92.00
16287;DHT22;8251;53.568;10.018;2024-01-06T10:54:27;3.40;92.00
16287;DHT22;8251;53.568;10.018;2024-01-06T10:56:57;3.40;92.00
16287;DHT22;8251;53.568;10.018;2024-01-06T10:59:26;3.40;91.80
16287;DHT22;8251;53.568;10.018;2024-01-06T11:01:56;3.30;91.70
16287;DHT22;8251;53.568;10.018;2024-01-06T11:04:25;3.30;91.80
16287;DHT22;8251;53.568;10.018;2024-01-06T11:06:53;3.30;91.80
16287;DHT22;8251;53.568;10.018;2024-01-06T11:09:24;3.30;91.90
16287;DHT22;8251;53.568;10.018;2024-01-06T11:11:55;3.30;91.80
16287;DHT22;8251;53.568;10.018;2024-01-06T11:14:24;3.30;91.60
16287;DHT22;8251;53.568;10.018;2024-01-06T11:16:53;3.20;91.70
16287;DHT22;8251;53.568;10.018;2024-01-06T11:19:43;3.20;91.90
16287;DHT22;8251;53.568;10.018;2024-01-06T11:22:25;3.20;91.90
16287;DHT22;8251;53.568;10.018;2024-01-06T11:24:55;3.20;92.20
16287;DHT22;8251;53.568;10.018;2024-01-06T11:27:23;3.20;92.30
16287;DHT22;8251;53.568;10.018;2024-01-06T11:29:53;3.30;92.20
16287;DHT22;8251;53.568;10.018;2024-01-06T11:32:27;3.20;92.20
16287;DHT22;8251;53.568;10.018;2024-01-06T11:34:54;3.30;92.20
16287;DHT22;8251;53.568;10.018;2024-01-06T11:37:25;3.20;92.10
16287;DHT22;8251;53.568;10.018;2024-01-06T11:39:52;3.20;92.00
16287;DHT22;8251;53.568;10.018;2024-01-06T11:42:19;3.10;92.00
16287;DHT22;8251;53.568;10.018;2024-01-06T11:44:50;3.20;92.10
16287;DHT22;8251;53.568;10.018;2024-01-06T11:47:19;3.30;92.20
16287;DHT22;8251;53.568;10.018;2024-01-06T11:49:54;3.30;92.20
16287;DHT22;8251;53.568;10.018;2024-01-06T11:52:30;3.30;92.20
16287;DHT22;8251;53.568;10.018;2024-01-06T11:54:57;3.30;92.20
16287;DHT22;8251;53.568;10.018;2024-01-06T11:57:25;3.30;92.20
16287;DHT22;8251;53.568;10.018;2024-01-06T11:59:57;3.30;92.20
16287;DHT22;8251;53.568;10.018;2024-01-06T12:02:24;3.30;92.10
16287;DHT22;8251;53.568;10.018;2024-01-06T12:04:53;3.30;92.20
16287;DHT22;8251;53.568;10.018;2024-01-06T12:07:22;3.30;92.10
16287;DHT22;8251;53.568;10.018;2024-01-06T12:09:50;3.30;92.00
16287;DHT22;8251;53.568;10.018;2024-01-06T12:12:19;3.20;91.90
16287;DHT22;8251;53.568;10.018;2024-01-06T12:14:47;3.30;92.10
16287;DHT22;8251;53.568;10.018;2024-01-06T12:17:14;3.30;92.20
16287;DHT22;8251;53.568;10.018;2024-01-06T12:19:42;3.30;92.20
16287;DHT22;8251;53.568;10.018;2024-01-06T12:22:12;3.30;92.20
16287;DHT22;8251;53.568;10.018;2024-01-06T12:24:40;3.30;92.40
16287;DHT22;8251;53.568;10.018;2024-01-06T12:27:08;3.30;92.20
16287;DHT22;8251;53.568;10.018;2024-01-06T12:29:38;3.20;92.00
16287;DHT22;8251;53.568;10.018;2024-01-06T12:32:08;3.20;92.00
16287;DHT22;8251;53.568;10.018;2024-01-06T12:34:35;3.20;92.10
16287;DHT22;8251;53.568;10.018;2024-01-06T12:37:03;3.20;92.20
16287;DHT22;8251;53.568;10.018;2024-01-06T12:39:31;3.20;92.20
16287;DHT22;8251;53.568;10.018;2024-01-06T12:42:01;3.20;92.10
16287;DHT22;8251;53.568;10.018;2024-01-06T12:44:28;3.20;92.20
16287;DHT22;8251;53.568;10.018;2024-01-06T12:46:58;3.20;92.20
16287;DHT22;8251;53.568;10.018;2024-01-06T12:49:26;3.20;92.20
16287;DHT22;8251;53.568;10.018;2024-01-06T12:51:53;3.10;92.20
16287;DHT22;8251;53.568;10.018;2024-01-06T12:54:23;3.20;92.30
16287;DHT22;8251;53.568;10.018;2024-01-06T12:56:53;3.20;92.50
16287;DHT22;8251;53.568;10.018;2024-01-06T12:59:21;3.20;92.70
16287;DHT22;8251;53.568;10.018;2024-01-06T13:01:48;3.20;92.50
16287;DHT22;8251;53.568;10.018;2024-01-06T13:04:16;3.20;92.50
16287;DHT22;8251;53.568;10.018;2024-01-06T13:06:45;3.20;92.60
16287;DHT22;8251;53.568;10.018;2024-01-06T13:09:14;3.30;92.70
16287;DHT22;8251;53.568;10.018;2024-01-06T13:11:42;3.30;92.70
16287;DHT22;8251;53.568;10.018;2024-01-06T13:14:32;3.30;92.60
16287;DHT22;8251;53.568;10.018;2024-01-06T13:16:59;3.30;92.40
16287;DHT22;8251;53.568;10.018;2024-01-06T13:19:26;3.20;92.40
16287;DHT22;8251;53.568;10.018;2024-01-06T13:21:54;3.20;92.40
16287;DHT22;8251;53.568;10.018;2024-01-06T13:24:25;3.20;92.60
16287;DHT22;8251;53.568;10.018;2024-01-06T13:26:54;3.20;92.70
16287;DHT22;8251;53.568;10.018;2024-01-06T13:29:23;3.30;92.80
16287;DHT22;8251;53.568;10.018;2024-01-06T13:31:50;3.30;92.80
16287;DHT22;8251;53.568;10.018;2024-01-06T13:34:19;3.30;92.60
16287;DHT22;8251;53.568;10.018;2024-01-06T13:36:45;3.30;92.50
16287;DHT22;8251;53.568;10.018;2024-01-06T13:39:12;3.30;92.50
16287;DHT22;8251;53.568;10.018;2024-01-06T13:41:46;3.30;92.50
16287;DHT22;8251;53.568;10.018;2024-01-06T13:44:14;3.30;92.50
16287;DHT22;8251;53.568;10.018;2024-01-06T13:46:42;3.30;92.60
16287;DHT22;8251;53.568;10.018;2024-01-06T13:49:11;3.30;92.60
16287;DHT22;8251;53.568;10.018;2024-01-06T13:51:38;3.30;92.50
16287;DHT22;8251;53.568;10.018;2024-01-06T13:54:06;3.30;92.60
16287;DHT22;8251;53.568;10.018;2024-01-06T13:56:34;3.30;92.50
16287;DHT22;8251;53.568;10.018;2024-01-06T13:59:02;3.20;92.50
16287;DHT22;8251;53.568;10.018;2024-01-06T14:01:29;3.20;92.60
16287;DHT22;8251;53.568;10.018;2024-01-06T14:03:59;3.20;92.50
16287;DHT22;8251;53.568;10.018;2024-01-06T14:06:28;3.20;92.60
16287;DHT22;8251;53.568;10.018;2024-01-06T14:08:55;3.20;93.10
16287;DHT22;8251;53.568;10.018;2024-01-06T14:11:30;3.20;92.80
16287;DHT22;8251;53.568;10.018;2024-01-06T14:13:59;3.30;92.80
16287;DHT22;8251;53.568;10.018;2024-01-06T14:16:26;3.30;92.70
16287;DHT22;8251;53.568;10.018;2024-01-06T14:18:52;3.30;92.60
16287;DHT22;8251;53.568;10.018;2024-01-06T14:21:22;3.30;92.70
16287;DHT22;8251;53.568;10.018;2024-01-06T14:23:51;3.30;92.80
16287;DHT22;8251;53.568;10.018;2024-01-06T14:26:18;3.30;92.80
16287;DHT22;8251;53.568;10.018;2024-01-06T14:28:45;3.30;92.90
16287;DHT22;8251;53.568;10.018;2024-01-06T14:31:13;3.30;92.60
16287;DHT22;8251;53.568;10.018;2024-01-06T14:33:41;3.30;92.60
16287;DHT22;8251;53.568;10.018;2024-01-06T14:36:11;3.20;92.70
16287;DHT22;8251;53.568;10.018;2024-01-06T14:38:40;3.20;92.70
16287;DHT22;8251;53.568;10.018;2024-01-06T14:41:07;3.30;92.80
16287;DHT22;8251;53.568;10.018;2024-01-06T14:43:35;3.60;92.90
16287;DHT22;8251;53.568;10.018;2024-01-06T14:46:03;3.20;92.80
16287;DHT22;8251;53.568;10.018;2024-01-06T14:48:31;3.20;92.80
16287;DHT22;8251;53.568;10.018;2024-01-06T14:50:58;3.20;92.80
16287;DHT22;8251;53.568;10.018;2024-01-06T14:53:28;3.10;92.80
16287;DHT22;8251;53.568;10.018;2024-01-06T14:55:56;3.10;93.00
16287;DHT22;8251;53.568;10.018;2024-01-06T14:58:23;3.10;93.10
16287;DHT22;8251;53.568;10.018;2024-01-06T15:00:50;3.10;93.10
16287;DHT22;8251;53.568;10.018;2024-01-06T15:03:17;3.30;93.10
16287;DHT22;8251;53.568;10.018;2024-01-06T15:05:44;3.50;93.10
16287;DHT22;8251;53.568;10.018;2024-01-06T15:08:11;3.20;93.10
16287;DHT22;8251;53.568;10.018;2024-01-06T15:10:38;3.20;92.90
16287;DHT22;8251;53.568;10.018;2024-01-06T15:13:06;3.20;92.50
16287;DHT22;8251;53.568;10.018;2024-01-06T15:15:33;3.20;92.70
16287;DHT22;8251;53.568;10.018;2024-01-06T15:18:00;3.20;92.70
16287;DHT22;8251;53.568;10.018;2024-01-06T15:20:27;3.20;92.70
16287;DHT22;8251;53.568;10.018;2024-01-06T15:22:54;3.10;92.70
16287;DHT22;8251;53.568;10.018;2024-01-06T15:25:21;3.10;92.80
16287;DHT22;8251;53.568;10.018;2024-01-06T15:27:48;3.10;92.70
16287;DHT22;8251;53.568;10.018;2024-01-06T15:30:16;3.20;92.70
16287;DHT22;8251;53.568;10.018;2024-01-06T15:32:44;3.10;92.70
16287;DHT22;8251;53.568;10.018;2024-01-06T15:35:11;3.10;92.80
16287;DHT22;8251;53.568;10.018;2024-01-06T15:37:40;3.20;92.80
16287;DHT22;8251;53.568;10.018;2024-01-06T15:40:08;3.20;92.80
16287;DHT22;8251;53.568;10.018;2024-01-06T15:42:36;3.20;92.80
16287;DHT22;8251;53.568;10.018;2024-01-06T15:45:03;3.30;92.80
16287;DHT22;8251;53.568;10.018;2024-01-06T15:47:32;3.30;92.60
16287;DHT22;8251;53.568;10.018;2024-01-06T15:50:00;3.30;92.50
16287;DHT22;8251;53.568;10.018;2024-01-06T15:52:27;3.20;92.40